Архив погоды в Елатьме

Метеограмма Елатьма
Четверг, 24 Мая
Время местн. Темп Ветер Видим Явления Облачность нижн/средн/верх Атм. давл. Влжн Точка росы ВНГО R Сост. почвы Tg s
Напр Скр Прв ур.ст ур.м изм
21:00 +15.1° штиль 0 - 4 км дымка облачно 753 765 0 93% +14° 1 км - - - -
18:00 +18.8° штиль 0 - 10 км небо без изменений {ливневые осадки} облачно 753 765 -0.5 78% +14.8° 600 м - - - -
15:00 +18.2° штиль 0 - 10 км ливневый дождь облачно 753 765 0 83% +15.3° 600 м - - - -
12:00 +20° В,Ю-В 1 - 10 км - облачно 753 765 -0.4 66% +13.4° 600 м - - - -
09:00 +19.4° В 1 - 10 км - облачно 753 765 -0.1 66% +13° 1 км - - - -
06:00 +14.8° В 1 - 10 км - облачно 754 766 -0.3 83% +12° 1 км - Влажная (без луж) - -
03:00 +11.6° штиль 0 - 10 км - облачно 754 766 -0.3 94% +10.7° более 2.5 км - - - -
00:00 +13.4° штиль 0 - 10 км - облачно 754 766 +0.1 91% +11.9° более 2.5 км - - - -
Среда, 23 Мая
Время местн. Темп Ветер Видим Явления Облачность нижн/средн/верх Атм. давл. Влжн Точка росы ВНГО R Сост. почвы Tg s
Напр Скр Прв ур.ст ур.м изм
21:00 +16.7° штиль 0 - 10 км - облачно 754 766 -0.1 73% +11.8° 1 км - - - -
18:00 +24.9° Ю 1 - 10 км - облачно 754 766 -1.1 42% +11° 1 км - - - -
15:00 +25.9° Ю 1 - 10 км - облачно 755 767 -1 39% +10.9° 600 м - - - -
12:00 +23.4° Ю,Ю-З 2 - 10 км - облачно 756 768 -0.8 45% +10.7° 1 км - - - -
09:00 +19.1° штиль 0 - 10 км небо без изменений {ливневые осадки} облачно 757 769 -0.5 65% +12.3° 1 км - - - -
06:00 +13.5° Ю-В 1 - 10 км - облачно с прояснениями 758 770 -0.5 74% +9° - - - - -
03:00 +11° штиль 0 - 10 км - облачно 757 770 -0.2 86% +8.8° - - - - -
00:00 - +13.5° Ю-В 1 - - - - 758 770 -0.5 74% +9° - - - - -
Вторник, 22 Мая
Время местн. Темп Ветер Видим Явления Облачность нижн/средн/верх Атм. давл. Влжн Точка росы ВНГО R Сост. почвы Tg s
Напр Скр Прв ур.ст ур.м изм
21:00 +14.7° Ю-В 1 - 10 км - переменная облачность 758 770 -0.4 68% +8.8° 1 км - - - -
18:00 +20.3° штиль 0 - 10 км - облачно 758 770 -1 44% +7.7° 1 км - - - -
15:00 +21.8° штиль 0 - 10 км - облачно 759 771 -0.7 36% +6.2° 600 м - - - -
12:00 +18.9° В,Ю-В 3 - 10 км - облачно 760 772 -0.8 35% +3° 1 км - - - -
09:00 +17.2° Ю-В 4 - 10 км - облачно с прояснениями 761 773 +0.2 37% +2.5° более 2.5 км - - - -
06:00 +10° В,Ю-В 2 - 10 км - переменная облачность 761 773 +0.8 64% +3.6° - - Влажная (без луж) - -
03:00 +8.5° В 1 - 10 км - ясно 760 772 +0.3 73% +4° более 2.5 км - - - -
00:00 +8.3° штиль 0 - 10 км - ясно 759 772 +0.6 75% +4.2° более 2.5 км - - - -
Понедельник, 21 Мая
Время местн. Темп Ветер Видим Явления Облачность нижн/средн/верх Атм. давл. Влжн Точка росы ВНГО R Сост. почвы Tg s
Напр Скр Прв ур.ст ур.м изм
21:00 +12° В 1 - 10 км - ясно 759 771 +0.8 58% +4° более 2.5 км - - - -
18:00 +18.8° В 2 - 10 км - ясно 758 770 0 33% +2.4° более 2.5 км - - - -